Accueil
METAR-TAF:

METAR-TAF

Aéroports :

Aérodrome de Tétouan - Sania R'mel

Tétouan, Maroc

latitude: 35-35N, longitude: 005-20W, altitude: 10 m

Observation

Le bulletin a été fait il y a 1 heure et 6 minutes, à 13:00 UTC
Vent 9 kt de ouest, variant entre sud-ouest et nord-ouest
Température 16°C
Humidité 63%
Pression 1027 hPa
Visibilité 10 km ou plus
Nuages fragmentés à une hauteur de 2000 ft

METAR: GMTN 121300Z 27009KT 220V310 9999 BKN020 16/09 Q1027 NOSIG

Heure: 15:06 (14:06 UTC)


TAF: absent

Observations et prévisions météorologiques de plus de 4000 aéroports (messages METAR et TAF).

Les stations disponibles sont représentées par des disques jaunes et rouges sur la carte.

Passer la souris dessus pour voir le nom de la station.

Cliquer dessus pour voir les observations et prévisions météorologiques.

Pour changer de carte: cliquez sur les boutons verts avec une croix noire pour zoomer, sur le bouton vert avec un tiret pour effectuer un zoom arrière, ou sur les flèches vertes pour les cartes adjacentes.


METAR-TAF: